Time;durP1;ratioP1;P1;durP2;ratioP2;P2;SDS_P1;SDS_P2;PMS_P1;PMS_P2;Temp;Humidity;BMP_temperature;BMP_pressure;BME280_temperature;BME280_humidity;BME280_pressure;Samples;Min_cycle;Max_cycle;Signal;HPM_P1;HPM_P2
2022/05/02 00:02:26;;;;;;;;;;;;;;;-145.06;0.00;60892.56;4863403;28;19917;-88
2022/05/02 00:05:06;;;;;;;;;;;;;;;-145.06;0.00;60892.56;4872101;28;19964;-88
2022/05/02 00:07:45;;;;;;;;;;;;;;;-145.06;0.00;60892.56;4855799;28;19921;-88
2022/05/02 00:10:24;;;;;;;;;;;;;;;-145.06;0.00;60892.56;4854249;28;20015;-88
2022/05/02 00:13:03;;;;;;;;;;;;;;;-145.06;0.00;60892.56;4849347;28;20000;-88
2022/05/02 00:15:42;;;;;;;;;;;;;;;-145.06;0.00;60892.56;4860753;28;19917;-88
2022/05/02 00:18:21;;;;;;;;;;;;;;;-145.06;0.00;60892.56;4863832;28;20516;-89
2022/05/02 00:21:00;;;;;;;;;;;;;;;-145.06;0.00;60892.56;4855776;28;20000;-90
2022/05/02 00:23:39;;;;;;;;;;;;;;;-145.06;0.00;60892.56;4870594;28;19936;-89
2022/05/02 00:26:18;;;;;;;;;;;;;;;-145.06;0.00;60892.56;4856601;28;19917;-89
2022/05/02 00:28:57;;;;;;;;;;;;;;;-145.06;0.00;60892.56;4867880;28;20004;-89
2022/05/02 00:31:36;;;;;;;;;;;;;;;-145.06;0.00;60892.56;4867817;28;19917;-88
2022/05/02 00:34:15;;;;;;;;;;;;;;;-145.06;0.00;60892.56;4855666;28;20004;-88
2022/05/02 00:36:54;;;;;;;;;;;;;;;-145.06;0.00;60892.56;4854828;28;19921;-88
2022/05/02 00:39:33;;;;;;;;;;;;;;;-145.06;0.00;60892.56;4860845;28;19922;-88
2022/05/02 00:42:12;;;;;;;;;;;;;;;-145.06;0.00;60892.56;4852032;28;19925;-89
2022/05/02 00:44:51;;;;;;;;;;;;;;;-145.06;0.00;60892.56;4857810;28;19917;-88
2022/05/02 00:47:30;;;;;;;;;;;;;;;-145.06;0.00;60892.56;4868772;28;20008;-89
2022/05/02 00:50:10;;;;;;;;;;;;;;;-145.06;0.00;60892.56;4853274;28;20020;-88
2022/05/02 00:52:49;;;;;;;;;;;;;;;-145.06;0.00;60892.56;4860260;28;20283;-87
2022/05/02 00:55:29;;;;;;;;;;;;;;;-145.06;0.00;60892.56;4857075;28;19917;-89
2022/05/02 00:58:08;;;;;;;;;;;;;;;-145.06;0.00;60892.56;4856318;28;19922;-88
2022/05/02 01:00:46;;;;;;;;;;;;;;;-145.06;0.00;60892.56;4854654;28;19917;-87
2022/05/02 01:03:25;;;;;;;;;;;;;;;-145.06;0.00;60892.56;4856426;28;19917;-90
2022/05/02 01:09:03;;;;;;;;;;;;;;;-145.06;0.00;60892.56;4853835;28;19917;-88
2022/05/02 01:11:41;;;;;;;;;;;;;;;-145.06;0.00;60892.56;4854458;28;19917;-88
2022/05/02 01:14:21;;;;;;;;;;;;;;;-145.06;0.00;60892.56;4859610;28;19917;-90
2022/05/02 01:17:00;;;;;;;;;;;;;;;-145.06;0.00;60892.56;4864645;28;19953;-90
2022/05/02 01:19:39;;;;;;;;;;;;;;;-145.06;0.00;60892.56;4854844;28;19917;-89
2022/05/02 01:22:19;;;;;;;;;;;;;;;-145.06;0.00;60892.56;4862773;28;19917;-88
2022/05/02 01:24:57;;;;;;;;;;;;;;;-145.06;0.00;60892.56;4870667;28;19917;-89
2022/05/02 01:27:37;;;;;;;;;;;;;;;-145.06;0.00;60892.56;4868558;28;19917;-89
2022/05/02 01:30:16;;;;;;;;;;;;;;;-145.06;0.00;60892.56;4869639;28;19917;-89
2022/05/02 01:32:54;;;;;;;;;;;;;;;-145.06;0.00;60892.56;4866894;28;19917;-88
2022/05/02 01:35:33;;;;;;;;;;;;;;;-145.06;0.00;60892.56;4860503;28;19917;-88
2022/05/02 01:38:13;;;;;;;;;;;;;;;-145.06;0.00;60892.56;4851961;28;19922;-89
2022/05/02 01:40:51;;;;;;;;;;;;;;;-145.06;0.00;60892.56;4857766;28;22078;-88
2022/05/02 01:43:33;;;;;;;;;;;;;;;-145.06;0.00;60892.56;4875103;28;19933;-89
2022/05/02 01:46:13;;;;;;;;;;;;;;;-145.06;0.00;60892.56;4868324;28;19968;-89
2022/05/02 01:48:52;;;;;;;;;;;;;;;-145.06;0.00;60892.56;4859458;28;19917;-88
2022/05/02 01:51:31;;;;;;;;;;;;;;;-145.06;0.00;60892.56;4873831;28;19917;-89
2022/05/02 01:54:10;;;;;;;;;;;;;;;-145.06;0.00;60892.56;4871850;28;19921;-87
2022/05/02 01:56:49;;;;;;;;;;;;;;;9.36;0.00;60892.56;4858723;28;19921;-89
2022/05/02 01:59:28;;;;;;;;;;;;;;;-145.06;0.00;60892.56;4859749;28;19918;-87
2022/05/02 02:02:07;;;;;;;;;;;;;;;-145.06;0.00;60892.56;4859193;28;19925;-89
2022/05/02 02:07:43;;;;;;;;;;;;;;;-145.06;0.00;60892.56;4867027;28;19917;-88
2022/05/02 02:10:23;;;;;;;;;;;;;;;-145.06;0.00;60892.56;4855032;28;19921;-88
2022/05/02 02:13:02;;;;;;;;;;;;;;;-145.06;0.00;60892.56;4860108;28;19956;-88
2022/05/02 02:15:41;;;;;;;;;;;;;;;-145.06;0.00;60892.56;4863451;28;19921;-87
2022/05/02 02:18:20;;;;;;;;;;;;;;;-145.06;0.00;60892.56;4854861;28;19920;-89
2022/05/02 02:20:59;;;;;;;;;;;;;;;-145.06;0.00;60892.56;4859909;28;19945;-89
2022/05/02 02:23:39;;;;;;;;;;;;;;;-145.06;0.00;60892.56;4849006;28;20255;-88
2022/05/02 02:26:18;;;;;;;;;;;;;;;-145.06;0.00;60892.56;4858693;28;19945;-88
2022/05/02 02:28:58;;;;;;;;;;;;;;;-145.06;0.00;60892.56;4871083;28;19917;-89
2022/05/02 02:31:37;;;;;;;;;;;;;;;-145.06;0.00;60892.56;4865541;28;19918;-88
2022/05/02 02:34:16;;;;;;;;;;;;;;;-145.06;0.00;60892.56;4859816;28;21363;-88
2022/05/02 02:36:55;;;;;;;;;;;;;;;-145.06;0.00;60892.56;4873140;28;20358;-89
2022/05/02 02:39:34;;;;;;;;;;;;;;;-145.06;0.00;60892.56;4859371;28;20259;-88
2022/05/02 02:42:13;;;;;;;;;;;;;;;-145.06;0.00;60892.56;4856232;28;20366;-89
2022/05/02 02:44:52;;;;;;;;;;;;;;;-145.06;0.00;60892.56;4864554;28;19918;-88
2022/05/02 02:47:31;;;;;;;;;;;;;;;-145.06;0.00;60892.56;4872267;28;19918;-89
2022/05/02 02:50:10;;;;;;;;;;;;;;;-145.06;0.00;60892.56;4870152;28;20259;-89
2022/05/02 02:52:49;;;;;;;;;;;;;;;-145.06;0.00;60892.56;4845468;28;19961;-89
2022/05/02 02:55:28;;;;;;;;;;;;;;;-145.06;0.00;60892.56;4872314;28;19917;-88
2022/05/02 02:58:07;;;;;;;;;;;;;;;-145.06;0.00;60892.56;4859017;28;19921;-87
2022/05/02 03:00:46;;;;;;;;;;;;;;;-145.06;0.00;60892.56;4859273;28;20386;-88
2022/05/02 03:03:25;;;;;;;;;;;;;;;-145.06;0.00;60892.56;4860562;28;19917;-89
2022/05/02 03:06:05;;;;;;;;;;;;;;;-145.06;0.00;60892.56;4869052;28;19925;-89
2022/05/02 03:08:44;;;;;;;;;;;;;;;-145.06;0.00;60892.56;4859563;28;19921;-88
2022/05/02 03:11:23;;;;;;;;;;;;;;;-145.06;0.00;60892.56;4847969;28;19920;-88
2022/05/02 03:14:02;;;;;;;;;;;;;;;-145.06;0.00;60892.56;4865898;28;19917;-88
2022/05/02 03:16:41;;;;;;;;;;;;;;;-145.06;0.00;60892.56;4860368;28;19921;-89
2022/05/02 03:19:20;;;;;;;;;;;;;;;-145.06;0.00;60892.56;4870159;28;19917;-88
2022/05/02 03:21:59;;;;;;;;;;;;;;;-145.06;0.00;60892.56;4867503;28;20008;-87
2022/05/02 03:24:39;;;;;;;;;;;;;;;-145.06;0.00;60892.56;4873664;28;19948;-88
2022/05/02 03:27:18;;;;;;;;;;;;;;;-145.06;0.00;60892.56;4865277;28;19917;-89
2022/05/02 03:29:57;;;;;;;;;;;;;;;-145.06;0.00;60892.56;4856828;28;19917;-89
2022/05/02 03:32:36;;;;;;;;;;;;;;;-145.06;0.00;60892.56;4855696;28;19920;-89
2022/05/02 03:35:15;;;;;;;;;;;;;;;-145.06;0.00;60892.56;4862371;28;19917;-89
2022/05/02 03:37:54;;;;;;;;;;;;;;;-145.06;0.00;60892.56;4858911;28;19967;-88
2022/05/02 03:40:33;;;;;;;;;;;;;;;-145.06;0.00;60892.56;4856139;28;19917;-89
2022/05/02 03:43:12;;;;;;;;;;;;;;;-145.06;0.00;60892.56;4871365;28;19917;-89
2022/05/02 03:45:51;;;;;;;;;;;;;;;-145.06;0.00;60892.56;4871801;28;19924;-89
2022/05/02 03:48:30;;;;;;;;;;;;;;;-145.06;0.00;60892.56;4852770;28;19917;-88
2022/05/02 03:51:09;;;;;;;;;;;;;;;-145.06;0.00;60892.56;4868285;28;20496;-88
2022/05/02 03:53:48;;;;;;;;;;;;;;;-145.06;0.00;60892.56;4849993;28;19924;-87
2022/05/02 03:56:27;;;;;;;;;;;;;;;-145.06;0.00;60892.56;4870717;28;19921;-89
2022/05/02 03:59:06;;;;;;;;;;;;;;;-145.06;0.00;60892.56;4859903;28;19964;-88
2022/05/02 04:01:45;;;;;;;;;;;;;;;9.38;0.00;60892.56;4857582;28;20445;-89
2022/05/02 04:04:24;;;;;;;;;;;;;;;10.68;0.00;60892.56;4870359;28;19917;-89
2022/05/02 04:07:04;;;;;;;;;;;;;;;9.38;0.00;60892.56;4872329;28;19917;-88
2022/05/02 04:09:42;;;;;;;;;;;;;;;9.38;0.00;60892.56;4859254;28;20260;-90
2022/05/02 04:12:21;;;;;;;;;;;;;;;9.38;0.00;60892.56;4858456;28;19972;-89
2022/05/02 04:15:00;;;;;;;;;;;;;;;21.08;0.00;60892.56;4869074;28;20528;-88
2022/05/02 04:17:40;;;;;;;;;;;;;;;9.38;0.00;60892.56;4851423;28;19926;-88
2022/05/02 04:20:19;;;;;;;;;;;;;;;187.52;0.00;60892.56;4857308;28;19921;-89
2022/05/02 04:22:58;;;;;;;;;;;;;;;10.68;0.00;60892.56;4873914;28;19917;-88
2022/05/02 04:25:37;;;;;;;;;;;;;;;187.52;0.00;60892.56;4873742;28;20012;-88
2022/05/02 04:28:16;;;;;;;;;;;;;;;21.08;0.00;60892.56;4859458;28;19918;-88
2022/05/02 04:30:55;;;;;;;;;;;;;;;9.31;0.00;60892.56;4862107;28;19914;-89
2022/05/02 04:33:33;;;;;;;;;;;;;;;9.31;0.00;60892.56;4868427;28;19917;-88
2022/05/02 04:36:13;;;;;;;;;;;;;;;10.68;0.00;60892.56;4854340;28;19925;-88
2022/05/02 04:38:52;;;;;;;;;;;;;;;9.34;0.00;60892.56;4865390;28;19956;-88
2022/05/02 04:41:31;;;;;;;;;;;;;;;9.32;0.00;60892.56;4856784;28;19917;-90
2022/05/02 04:44:09;;;;;;;;;;;;;;;10.68;0.00;60892.56;4873796;28;19913;-89
2022/05/02 04:46:49;;;;;;;;;;;;;;;187.52;0.00;60892.56;4866435;28;19929;-89
2022/05/02 04:49:28;;;;;;;;;;;;;;;9.38;0.00;60892.56;4865420;28;19921;-88
2022/05/02 04:52:07;;;;;;;;;;;;;;;10.68;0.00;60892.56;4871368;28;19925;-88
2022/05/02 04:54:46;;;;;;;;;;;;;;;21.08;0.00;60892.56;4879649;28;19932;-88
2022/05/02 04:57:25;;;;;;;;;;;;;;;-145.06;0.00;60892.56;4852940;28;20355;-88
2022/05/02 05:00:05;;;;;;;;;;;;;;;10.68;0.00;60892.56;4849437;28;20020;-87
2022/05/02 05:02:43;;;;;;;;;;;;;;;-145.06;0.00;60892.56;4854781;28;19917;-88
2022/05/02 05:05:22;;;;;;;;;;;;;;;-145.06;0.00;60892.56;4864329;28;19917;-88
2022/05/02 05:08:01;;;;;;;;;;;;;;;-145.06;0.00;60892.56;4856934;28;19917;-88
2022/05/02 05:11:01;;;;;;;;;;;;;;;-145.06;0.00;60892.56;4868642;28;20011;-88
2022/05/02 05:17:22;;;;;;;;;;;;;;;-145.06;0.00;60892.56;4850485;28;19925;-87
2022/05/02 05:20:09;;;;;;;;;;;;;;;-145.06;0.00;60892.56;4868650;28;19917;-89
2022/05/02 05:22:48;;;;;;;;;;;;;;;-145.06;0.00;60892.56;4853429;28;19921;-89
2022/05/02 05:25:46;;;;;;;;;;;;;;;-145.06;0.00;60892.56;4854518;28;19921;-88
2022/05/02 05:28:25;;;;;;;;;;;;;;;-145.06;0.00;60892.56;4866326;28;19917;-88
2022/05/02 05:31:20;;;;;;;;;;;;;;;-145.06;0.00;60892.56;4864555;28;19921;-88
2022/05/02 05:34:16;;;;;;;;;;;;;;;-145.06;0.00;60892.56;4855799;28;19921;-88
2022/05/02 05:37:14;;;;;;;;;;;;;;;-145.06;0.00;60892.56;4853308;28;19921;-89
2022/05/02 05:39:59;;;;;;;;;;;;;;;-145.06;0.00;60892.56;4851872;28;20340;-88
2022/05/02 05:42:38;;;;;;;;;;;;;;;-145.06;0.00;60892.56;4864424;28;20514;-88
2022/05/02 05:45:31;;;;;;;;;;;;;;;-145.06;0.00;60892.56;4869301;28;20256;-87
2022/05/02 05:48:19;;;;;;;;;;;;;;;-145.06;0.00;60892.56;4850898;28;19921;-87
2022/05/02 05:51:01;;;;;;;;;;;;;;;-145.06;0.00;60892.56;4869271;28;19917;-89
2022/05/02 05:53:50;;;;;;;;;;;;;;;-145.06;0.00;60892.56;4870330;28;19925;-87
2022/05/02 05:56:29;;;;;;;;;;;;;;;-145.06;0.00;60892.56;4868975;28;19921;-87
2022/05/02 05:59:26;;;;;;;;;;;;;;;-145.06;0.00;60892.56;4875600;28;19921;-87
2022/05/02 06:02:10;;;;;;;;;;;;;;;-145.06;0.00;60892.56;4869793;28;20523;-87
2022/05/02 06:04:49;;;;;;;;;;;;;;;-145.06;0.00;60892.56;4868227;28;20526;-88
2022/05/02 06:07:30;;;;;;;;;;;;;;;-145.06;0.00;60892.56;4855675;28;20279;-88
2022/05/02 06:10:09;;;;;;;;;;;;;;;-145.06;0.00;60892.56;4858471;28;19917;-88
2022/05/02 06:12:49;;;;;;;;;;;;;;;-145.06;0.00;60892.56;4871876;28;19917;-88
2022/05/02 06:18:28;;;;;;;;;;;;;;;-145.06;0.00;60892.56;4856787;28;19921;-88
2022/05/02 06:21:07;;;;;;;;;;;;;;;10.39;0.00;60892.56;4869917;28;19913;-88
2022/05/02 06:23:47;;;;;;;;;;;;;;;10.52;0.00;60892.56;4869533;28;19917;-88
2022/05/02 06:26:26;;;;;;;;;;;;;;;10.68;0.00;60892.56;4869858;28;19917;-87
2022/05/02 06:29:07;;;;;;;;;;;;;;;-145.06;0.00;60892.56;4864705;28;19921;-88
2022/05/02 06:31:49;;;;;;;;;;;;;;;-145.06;0.00;60892.56;4873005;28;20370;-89
2022/05/02 06:34:29;;;;;;;;;;;;;;;-145.06;0.00;60892.56;4865418;28;19917;-88
2022/05/02 06:37:11;;;;;;;;;;;;;;;-145.06;0.00;60892.56;4873933;28;19921;-89
2022/05/02 06:39:50;;;;;;;;;;;;;;;-145.06;0.00;60892.56;4872318;28;19925;-87
2022/05/02 06:42:39;;;;;;;;;;;;;;;-145.06;0.00;60892.56;4857778;28;19917;-88
2022/05/02 06:45:26;;;;;;;;;;;;;;;-145.06;0.00;60892.56;4872344;28;19917;-88
2022/05/02 06:48:13;;;;;;;;;;;;;;;-145.06;0.00;60892.56;4867055;28;19917;-89
2022/05/02 06:50:59;;;;;;;;;;;;;;;-145.06;0.00;60892.56;4886450;28;19996;-87
2022/05/02 06:53:41;;;;;;;;;;;;;;;-145.06;0.00;60892.56;4871027;28;19917;-89
2022/05/02 06:56:55;;;;;;;;;;;;;;;-145.06;0.00;60892.56;4871120;28;19925;-88
2022/05/02 06:59:34;;;;;;;;;;;;;;;-145.06;0.00;60892.56;4798492;28;20360;-89
2022/05/02 07:02:13;;;;;;;;;;;;;;;-145.06;0.00;60892.56;4863433;28;19913;-89
2022/05/02 07:04:53;;;;;;;;;;;;;;;-145.06;0.00;60892.56;4872439;28;19913;-88
2022/05/02 07:07:36;;;;;;;;;;;;;;;-145.06;0.00;60892.56;4867801;28;20433;-87
2022/05/02 07:10:15;;;;;;;;;;;;;;;-145.06;0.00;60892.56;4869635;28;20078;-88
2022/05/02 07:13:00;;;;;;;;;;;;;;;-145.06;0.00;60892.56;4874141;28;20527;-88
2022/05/02 07:15:48;;;;;;;;;;;;;;;-145.06;0.00;60892.56;4868608;28;19920;-87
2022/05/02 07:18:46;;;;;;;;;;;;;;;-145.06;0.00;60892.56;4877863;28;19921;-89
2022/05/02 07:21:28;;;;;;;;;;;;;;;-145.06;0.00;60892.56;4875023;28;20007;-89
2022/05/02 07:24:21;;;;;;;;;;;;;;;-145.06;0.00;60892.56;4876162;28;20125;-89
2022/05/02 07:27:06;;;;;;;;;;;;;;;11.72;0.00;60892.56;4869968;28;20142;-89
2022/05/02 07:29:46;;;;;;;;;;;;;;;11.80;0.00;60892.56;4867941;28;19913;-89
2022/05/02 07:32:26;;;;;;;;;;;;;;;11.86;0.00;60892.56;4870133;28;19921;-88
2022/05/02 07:35:06;;;;;;;;;;;;;;;11.92;0.00;60892.56;4873169;28;20362;-89
2022/05/02 07:37:46;;;;;;;;;;;;;;;-145.06;0.00;60892.56;4868939;28;19921;-89
2022/05/02 07:40:25;;;;;;;;;;;;;;;-145.06;0.00;60892.56;4858487;28;19921;-89
2022/05/02 07:43:05;;;;;;;;;;;;;;;-145.06;0.00;60892.56;4858716;28;19925;-88
2022/05/02 07:45:44;;;;;;;;;;;;;;;-145.06;0.00;60892.56;4865693;28;20361;-88
2022/05/02 07:48:23;;;;;;;;;;;;;;;-145.06;0.00;60892.56;4869083;28;19917;-88
2022/05/02 07:51:03;;;;;;;;;;;;;;;-145.06;0.00;60892.56;4876557;28;20379;-90
2022/05/02 07:53:43;;;;;;;;;;;;;;;-145.06;0.00;60892.56;4870029;28;19917;-88
2022/05/02 07:56:23;;;;;;;;;;;;;;;-145.06;0.00;60892.56;4858533;28;19921;-88
2022/05/02 07:59:06;;;;;;;;;;;;;;;-145.06;0.00;60892.56;4861380;28;19913;-89
2022/05/02 08:01:46;;;;;;;;;;;;;;;-145.06;0.00;60892.56;4856803;28;19921;-90
2022/05/02 08:04:25;;;;;;;;;;;;;;;-145.06;0.00;60892.56;4876201;28;19936;-89
2022/05/02 08:07:13;;;;;;;;;;;;;;;-145.06;0.00;60892.56;4864519;28;19925;-89
2022/05/02 08:10:12;;;;;;;;;;;;;;;-145.06;0.00;60892.56;4856256;28;19940;-89
2022/05/02 08:12:53;;;;;;;;;;;;;;;-145.06;0.00;60892.56;4867673;28;19917;-89
2022/05/02 08:15:35;;;;;;;;;;;;;;;13.03;0.00;60892.56;4872753;28;19917;-88
2022/05/02 08:18:42;;;;;;;;;;;;;;;13.11;0.00;60892.56;4860912;28;19921;-90
2022/05/02 08:21:24;;;;;;;;;;;;;;;13.19;0.00;60892.56;4861283;28;20015;-89
2022/05/02 08:27:25;;;;;;;;;;;;;;;-145.06;0.00;60892.56;4862937;28;19917;-89
2022/05/02 08:30:20;;;;;;;;;;;;;;;-145.06;0.00;60892.56;4869154;28;19925;-89
2022/05/02 08:33:07;;;;;;;;;;;;;;;-145.06;0.00;60892.56;4869433;28;20102;-89
2022/05/02 08:36:03;;;;;;;;;;;;;;;-145.06;0.00;60892.56;4853206;28;19917;-89
2022/05/02 08:38:55;;;;;;;;;;;;;;;-145.06;0.00;60892.56;4848873;28;20621;-88
2022/05/02 08:41:57;;;;;;;;;;;;;;;-145.06;0.00;60892.56;4864824;28;19917;-89
2022/05/02 08:44:45;;;;;;;;;;;;;;;-145.06;0.00;60892.56;4859435;28;19936;-88
2022/05/02 08:47:43;;;;;;;;;;;;;;;-145.06;0.00;60892.56;4872164;28;20371;-89
2022/05/02 08:50:42;;;;;;;;;;;;;;;-145.06;0.00;60892.56;4868249;28;19917;-89
2022/05/02 08:53:39;;;;;;;;;;;;;;;-145.06;0.00;60892.56;4851015;28;19917;-88
2022/05/02 08:56:18;;;;;;;;;;;;;;;14.58;0.00;60892.56;4854701;28;19921;-88
2022/05/02 08:59:06;;;;;;;;;;;;;;;14.58;0.00;60892.56;4870285;28;19921;-89
2022/05/02 09:01:57;;;;;;;;;;;;;;;14.58;0.00;60892.56;4864875;28;19917;-88
2022/05/02 09:04:59;;;;;;;;;;;;;;;-145.06;0.00;60892.56;4865386;28;20387;-89
2022/05/02 09:07:38;;;;;;;;;;;;;;;-145.06;0.00;60892.56;4862671;28;19917;-89
2022/05/02 09:10:23;;;;;;;;;;;;;;;-145.06;0.00;60892.56;4867225;28;19917;-89
2022/05/02 09:13:08;;;;;;;;;;;;;;;-145.06;0.00;60892.56;4857778;28;19917;-89
2022/05/02 09:16:10;;;;;;;;;;;;;;;-145.06;0.00;60892.56;4857601;28;19917;-89
2022/05/02 09:19:08;;;;;;;;;;;;;;;-145.06;0.00;60892.56;4848658;28;19922;-88
2022/05/02 09:22:07;;;;;;;;;;;;;;;-145.06;0.00;60892.56;4868805;28;19917;-88
2022/05/02 09:25:04;;;;;;;;;;;;;;;-145.06;0.00;60892.56;4848295;28;19917;-89
2022/05/02 09:27:49;;;;;;;;;;;;;;;-145.06;0.00;60892.56;4869934;28;19921;-89
2022/05/02 09:30:44;;;;;;;;;;;;;;;15.60;0.00;60892.56;4873982;28;19917;-88
2022/05/02 09:33:41;;;;;;;;;;;;;;;15.73;0.00;60892.56;4875797;28;19913;-88
2022/05/02 09:36:24;;;;;;;;;;;;;;;15.84;0.00;60892.56;4868174;28;19921;-88
2022/05/02 09:39:12;;;;;;;;;;;;;;;-145.06;0.00;60892.56;4873271;28;20066;-89
2022/05/02 09:41:58;;;;;;;;;;;;;;;-145.06;0.00;60892.56;4873352;28;20255;-89
2022/05/02 09:51:00;;;;;;;;;;;;;;;-145.06;0.00;60892.56;4851910;28;20386;-88
2022/05/02 09:53:48;;;;;;;;;;;;;;;-145.06;0.00;60892.56;4856115;28;19969;-88
2022/05/02 09:56:39;;;;;;;;;;;;;;;-145.06;0.00;60892.56;4858438;28;19929;-89
2022/05/02 09:59:21;;;;;;;;;;;;;;;-145.06;0.00;60892.56;4865391;28;19913;-89
2022/05/02 10:02:07;;;;;;;;;;;;;;;-145.06;0.00;60892.56;4863288;28;19953;-89
2022/05/02 10:04:49;;;;;;;;;;;;;;;-145.06;0.00;60892.56;4856020;28;20008;-90
2022/05/02 10:07:28;;;;;;;;;;;;;;;-145.06;0.00;60892.56;4853682;28;20013;-88
2022/05/02 10:10:09;;;;;;;;;;;;;;;16.99;0.00;60892.56;4862930;28;19917;-88
2022/05/02 10:13:00;;;;;;;;;;;;;;;17.06;0.00;60892.56;4858523;28;19913;-89
2022/05/02 10:15:58;;;;;;;;;;;;;;;17.14;0.00;60892.56;4872383;28;19921;-87
2022/05/02 10:18:56;;;;;;;;;;;;;;;-145.06;0.00;60892.56;4869789;28;20000;-88
2022/05/02 10:21:39;;;;;;;;;;;;;;;-145.06;0.00;60892.56;4870729;28;19925;-88
2022/05/02 10:24:18;;;;;;;;;;;;;;;-145.06;0.00;60892.56;4869789;28;19913;-89
2022/05/02 10:27:07;;;;;;;;;;;;;;;-145.06;0.00;60892.56;4868103;28;19956;-88
2022/05/02 10:29:46;;;;;;;;;;;;;;;-145.06;0.00;60892.56;4853058;28;19921;-89
2022/05/02 10:32:32;;;;;;;;;;;;;;;-145.06;0.00;60892.56;4863567;28;19914;-88
2022/05/02 10:35:12;;;;;;;;;;;;;;;-145.06;0.00;60892.56;4863051;28;19921;-88
2022/05/02 10:37:54;;;;;;;;;;;;;;;-145.06;0.00;60892.56;4875758;28;19921;-88
2022/05/02 10:40:34;;;;;;;;;;;;;;;18.22;0.00;60892.56;4859780;28;19996;-88
2022/05/02 10:43:21;;;;;;;;;;;;;;;18.33;0.00;60892.56;4871135;28;20015;-89
2022/05/02 10:46:01;;;;;;;;;;;;;;;18.45;0.00;60892.56;4861864;28;20003;-88
2022/05/02 10:48:44;;;;;;;;;;;;;;;-145.06;0.00;60892.56;4859450;28;19924;-89
2022/05/02 10:51:40;;;;;;;;;;;;;;;-145.06;0.00;60892.56;4864103;28;19953;-89
2022/05/02 10:54:38;;;;;;;;;;;;;;;-145.06;0.00;60892.56;4865990;28;19917;-87
2022/05/02 10:57:31;;;;;;;;;;;;;;;-145.06;0.00;60892.56;4872064;28;19921;-87
2022/05/02 11:00:10;;;;;;;;;;;;;;;-145.06;0.00;60892.56;4864274;28;19917;-87
2022/05/02 11:02:54;;;;;;;;;;;;;;;-145.06;0.00;60892.56;4877227;28;20363;-87
2022/05/02 11:05:43;;;;;;;;;;;;;;;-145.06;0.00;60892.56;4879174;28;20007;-88
2022/05/02 11:08:37;;;;;;;;;;;;;;;-145.06;0.00;60892.56;4872256;28;19917;-88
2022/05/02 11:11:36;;;;;;;;;;;;;;;-145.06;0.00;60892.56;4885542;28;19917;-88
2022/05/02 11:14:35;;;;;;;;;;;;;;;-145.06;0.00;60892.56;4862711;28;20335;-88
2022/05/02 11:17:17;;;;;;;;;;;;;;;-145.06;0.00;60892.56;4868970;28;19921;-89
2022/05/02 11:23:00;;;;;;;;;;;;;;;-145.06;0.00;60892.56;4852519;28;19917;-88
2022/05/02 11:25:57;;;;;;;;;;;;;;;-145.06;0.00;60892.56;4871328;28;19913;-87
2022/05/02 11:28:55;;;;;;;;;;;;;;;-145.06;0.00;60892.56;4859230;28;20008;-89
2022/05/02 11:31:38;;;;;;;;;;;;;;;-145.06;0.00;60892.56;4864468;28;19917;-87
2022/05/02 11:34:28;;;;;;;;;;;;;;;-145.06;0.00;60892.56;4857654;28;19917;-89
2022/05/02 11:37:17;;;;;;;;;;;;;;;-145.06;0.00;60892.56;4856536;28;19917;-87
2022/05/02 11:39:57;;;;;;;;;;;;;;;-145.06;0.00;60892.56;4872057;28;19917;-87
2022/05/02 11:42:43;;;;;;;;;;;;;;;-145.06;0.00;60892.56;4885190;28;19921;-87
2022/05/02 11:45:42;;;;;;;;;;;;;;;-145.06;0.00;60892.56;4861791;28;20182;-87
2022/05/02 11:48:20;;;;;;;;;;;;;;;-145.06;0.00;60892.56;4869156;28;20020;-87
2022/05/02 11:51:02;;;;;;;;;;;;;;;-145.06;0.00;60892.56;4857540;28;19917;-87
2022/05/02 11:53:47;;;;;;;;;;;;;;;-145.06;0.00;60892.56;4855559;28;19921;-87
2022/05/02 11:56:35;;;;;;;;;;;;;;;-145.06;0.00;60892.56;4847664;28;20291;-87
2022/05/02 11:59:18;;;;;;;;;;;;;;;-145.06;0.00;60892.56;4856372;28;19917;-89
2022/05/02 12:02:03;;;;;;;;;;;;;;;-145.06;0.00;60892.56;4852809;28;19917;-87
2022/05/02 12:04:44;;;;;;;;;;;;;;;-145.06;0.00;60892.56;4869536;28;19916;-87
2022/05/02 12:07:29;;;;;;;;;;;;;;;-145.06;0.00;60892.56;4857387;28;19920;-88
2022/05/02 12:10:09;;;;;;;;;;;;;;;-145.06;0.00;60892.56;4862818;28;20000;-87
2022/05/02 12:12:49;;;;;;;;;;;;;;;-145.06;0.00;60892.56;4856810;28;20514;-88
2022/05/02 12:15:28;;;;;;;;;;;;;;;-145.06;0.00;60892.56;4865514;28;19917;-87
2022/05/02 12:18:08;;;;;;;;;;;;;;;-145.06;0.00;60892.56;4878196;28;19921;-87
2022/05/02 12:20:52;;;;;;;;;;;;;;;-145.06;0.00;60892.56;4886658;28;19917;-88
2022/05/02 12:23:33;;;;;;;;;;;;;;;-145.06;0.00;60892.56;4858632;28;19925;-88
2022/05/02 12:26:15;;;;;;;;;;;;;;;-145.06;0.00;60892.56;4863039;28;20329;-88
2022/05/02 12:28:58;;;;;;;;;;;;;;;-145.06;0.00;60892.56;4867389;28;19921;-87
2022/05/02 12:31:37;;;;;;;;;;;;;;;-145.06;0.00;60892.56;4852915;28;20279;-88
2022/05/02 12:34:16;;;;;;;;;;;;;;;-145.06;0.00;60892.56;4851579;28;19917;-86
2022/05/02 12:36:56;;;;;;;;;;;;;;;-145.06;0.00;60892.56;4863211;28;20410;-88
2022/05/02 12:39:42;;;;;;;;;;;;;;;-145.06;0.00;60892.56;4870781;28;19921;-87
2022/05/02 12:42:25;;;;;;;;;;;;;;;-145.06;0.00;60892.56;4858061;28;19926;-87
2022/05/02 12:45:06;;;;;;;;;;;;;;;-145.06;0.00;60892.56;4855114;28;19921;-87
2022/05/02 12:47:45;;;;;;;;;;;;;;;-145.06;0.00;60892.56;4866414;28;19921;-87
2022/05/02 12:50:27;;;;;;;;;;;;;;;-145.06;0.00;60892.56;4867739;28;19921;-87
2022/05/02 12:53:16;;;;;;;;;;;;;;;-145.06;0.00;60892.56;4853398;28;19917;-87
2022/05/02 12:56:00;;;;;;;;;;;;;;;-145.06;0.00;60892.56;4857091;28;19917;-88
2022/05/02 13:01:43;;;;;;;;;;;;;;;-145.06;0.00;60892.56;4856630;28;19996;-87
2022/05/02 13:04:22;;;;;;;;;;;;;;;-145.06;0.00;60892.56;4851632;28;19921;-90
2022/05/02 13:07:01;;;;;;;;;;;;;;;-145.06;0.00;60892.56;4867372;28;20370;-87
2022/05/02 13:09:40;;;;;;;;;;;;;;;21.82;0.00;60892.56;4844913;28;19922;-86
2022/05/02 13:12:22;;;;;;;;;;;;;;;-145.06;0.00;60892.56;4857982;28;19921;-87
2022/05/02 13:15:01;;;;;;;;;;;;;;;26.27;0.00;60892.56;4848669;28;19961;-86
2022/05/02 13:17:40;;;;;;;;;;;;;;;-145.06;0.00;60892.56;4853579;28;19920;-87
2022/05/02 13:20:19;;;;;;;;;;;;;;;-145.06;0.00;60892.56;4869502;28;19921;-88
2022/05/02 13:23:02;;;;;;;;;;;;;;;-145.06;0.00;60892.56;4861935;28;19917;-87
2022/05/02 13:25:47;;;;;;;;;;;;;;;-145.06;0.00;60892.56;4853419;28;19921;-87
2022/05/02 13:28:35;;;;;;;;;;;;;;;-145.06;0.00;60892.56;4862733;28;19925;-88
2022/05/02 13:31:14;;;;;;;;;;;;;;;-145.06;0.00;60892.56;4852304;28;19925;-89
2022/05/02 13:33:54;;;;;;;;;;;;;;;-145.06;0.00;60892.56;4860116;28;19921;-88
2022/05/02 13:36:41;;;;;;;;;;;;;;;-145.06;0.00;60892.56;4846735;28;19921;-89
2022/05/02 13:39:22;;;;;;;;;;;;;;;-145.06;0.00;60892.56;4864843;28;19921;-88
2022/05/02 13:42:10;;;;;;;;;;;;;;;-145.06;0.00;60892.56;4861881;28;19920;-88
2022/05/02 13:44:53;;;;;;;;;;;;;;;-145.06;0.00;60892.56;4850984;28;19921;-88
2022/05/02 13:47:51;;;;;;;;;;;;;;;-145.06;0.00;60892.56;4852230;28;20004;-87
2022/05/02 13:50:38;;;;;;;;;;;;;;;-145.06;0.00;60892.56;4847852;28;20589;-87
2022/05/02 13:53:35;;;;;;;;;;;;;;;-145.06;0.00;60892.56;4856463;28;19921;-88
2022/05/02 13:56:29;;;;;;;;;;;;;;;-145.06;0.00;60892.56;4864007;28;19921;-88
2022/05/02 13:59:20;;;;;;;;;;;;;;;-145.06;0.00;60892.56;4862566;28;19921;-89
2022/05/02 14:02:00;;;;;;;;;;;;;;;-145.06;0.00;60892.56;4859706;28;19921;-88
2022/05/02 14:04:42;;;;;;;;;;;;;;;-145.06;0.00;60892.56;4855452;28;19921;-88
2022/05/02 14:07:24;;;;;;;;;;;;;;;-145.06;0.00;60892.56;4848462;28;19921;-88
2022/05/02 14:10:05;;;;;;;;;;;;;;;-145.06;0.00;60892.56;4850896;28;20438;-89
2022/05/02 14:12:44;;;;;;;;;;;;;;;-145.06;0.00;60892.56;4851221;28;20036;-88
2022/05/02 14:15:23;;;;;;;;;;;;;;;-145.06;0.00;60892.56;4849917;28;20015;-87
2022/05/02 14:18:10;;;;;;;;;;;;;;;-145.06;0.00;60892.56;4864051;28;20365;-88
2022/05/02 14:20:58;;;;;;;;;;;;;;;-145.06;0.00;60892.56;4861863;28;19925;-88
2022/05/02 14:23:46;;;;;;;;;;;;;;;-145.06;0.00;60892.56;4865171;28;19921;-88
2022/05/02 14:26:29;;;;;;;;;;;;;;;-145.06;0.00;60892.56;4861454;28;20016;-89
2022/05/02 14:29:10;;;;;;;;;;;;;;;-145.06;0.00;60892.56;4850258;28;19921;-88
2022/05/02 14:31:48;;;;;;;;;;;;;;;-145.06;0.00;60892.56;4851800;28;19953;-89